sensor_id;sensor_type;location;lat;lon;timestamp;temperature;humidity
75088;HTU21D;63664;44.868;40.600;2023-08-20T00:01:22;20.71;56.70
75088;HTU21D;63664;44.868;40.600;2023-08-20T00:03:54;20.69;56.77
75088;HTU21D;63664;44.868;40.600;2023-08-20T00:06:21;20.64;56.95
75088;HTU21D;63664;44.868;40.600;2023-08-20T00:08:48;20.62;57.11
75088;HTU21D;63664;44.868;40.600;2023-08-20T00:11:14;20.57;57.26
75088;HTU21D;63664;44.868;40.600;2023-08-20T00:13:41;20.54;57.49
75088;HTU21D;63664;44.868;40.600;2023-08-20T00:16:09;20.49;57.67
75088;HTU21D;63664;44.868;40.600;2023-08-20T00:18:37;20.48;57.81
75088;HTU21D;63664;44.868;40.600;2023-08-20T00:21:04;20.45;57.86
75088;HTU21D;63664;44.868;40.600;2023-08-20T00:23:31;20.44;57.97
75088;HTU21D;63664;44.868;40.600;2023-08-20T00:25:57;20.43;58.03
75088;HTU21D;63664;44.868;40.600;2023-08-20T00:28:24;20.42;58.11
75088;HTU21D;63664;44.868;40.600;2023-08-20T00:30:50;20.44;58.18
75088;HTU21D;63664;44.868;40.600;2023-08-20T00:33:17;20.42;58.19
75088;HTU21D;63664;44.868;40.600;2023-08-20T00:35:44;20.41;58.19
75088;HTU21D;63664;44.868;40.600;2023-08-20T00:38:10;20.40;58.22
75088;HTU21D;63664;44.868;40.600;2023-08-20T00:40:36;20.39;58.23
75088;HTU21D;63664;44.868;40.600;2023-08-20T00:43:03;20.37;58.29
75088;HTU21D;63664;44.868;40.600;2023-08-20T00:45:30;20.34;58.34
75088;HTU21D;63664;44.868;40.600;2023-08-20T00:47:57;20.34;58.35
75088;HTU21D;63664;44.868;40.600;2023-08-20T00:50:23;20.32;58.45
75088;HTU21D;63664;44.868;40.600;2023-08-20T00:52:50;20.30;58.52
75088;HTU21D;63664;44.868;40.600;2023-08-20T00:55:16;20.28;58.65
75088;HTU21D;63664;44.868;40.600;2023-08-20T00:57:43;20.24;58.68
75088;HTU21D;63664;44.868;40.600;2023-08-20T01:00:10;20.19;58.86
75088;HTU21D;63664;44.868;40.600;2023-08-20T01:02:38;20.18;58.99
75088;HTU21D;63664;44.868;40.600;2023-08-20T01:05:09;20.16;59.09
75088;HTU21D;63664;44.868;40.600;2023-08-20T01:10:53;20.13;59.16
75088;HTU21D;63664;44.868;40.600;2023-08-20T01:13:22;20.11;59.21
75088;HTU21D;63664;44.868;40.600;2023-08-20T01:15:49;20.06;59.42
75088;HTU21D;63664;44.868;40.600;2023-08-20T01:18:16;20.05;59.55
75088;HTU21D;63664;44.868;40.600;2023-08-20T01:20:51;20.02;59.67
75088;HTU21D;63664;44.868;40.600;2023-08-20T01:23:55;19.99;59.79
75088;HTU21D;63664;44.868;40.600;2023-08-20T01:29:27;19.95;59.81
75088;HTU21D;63664;44.868;40.600;2023-08-20T01:31:54;19.94;60.02
75088;HTU21D;63664;44.868;40.600;2023-08-20T01:34:21;19.92;60.20
75088;HTU21D;63664;44.868;40.600;2023-08-20T01:36:47;19.90;60.38
75088;HTU21D;63664;44.868;40.600;2023-08-20T01:39:14;19.90;60.53
75088;HTU21D;63664;44.868;40.600;2023-08-20T01:41:42;19.90;60.64
75088;HTU21D;63664;44.868;40.600;2023-08-20T01:44:08;19.89;60.80
75088;HTU21D;63664;44.868;40.600;2023-08-20T01:46:34;19.88;60.93
75088;HTU21D;63664;44.868;40.600;2023-08-20T01:49:00;19.88;61.10
75088;HTU21D;63664;44.868;40.600;2023-08-20T01:51:27;19.84;61.26
75088;HTU21D;63664;44.868;40.600;2023-08-20T01:53:54;19.84;61.44
75088;HTU21D;63664;44.868;40.600;2023-08-20T01:56:23;19.82;61.63
75088;HTU21D;63664;44.868;40.600;2023-08-20T01:58:49;19.81;61.80
75088;HTU21D;63664;44.868;40.600;2023-08-20T02:01:15;19.79;62.02
75088;HTU21D;63664;44.868;40.600;2023-08-20T02:03:41;19.75;62.25
75088;HTU21D;63664;44.868;40.600;2023-08-20T02:06:08;19.73;62.46
75088;HTU21D;63664;44.868;40.600;2023-08-20T02:08:35;19.71;62.64
75088;HTU21D;63664;44.868;40.600;2023-08-20T02:11:02;19.67;62.88
75088;HTU21D;63664;44.868;40.600;2023-08-20T02:13:29;19.63;63.03
75088;HTU21D;63664;44.868;40.600;2023-08-20T02:16:00;19.60;63.15
75088;HTU21D;63664;44.868;40.600;2023-08-20T02:18:28;19.58;63.27
75088;HTU21D;63664;44.868;40.600;2023-08-20T02:20:54;19.58;63.41
75088;HTU21D;63664;44.868;40.600;2023-08-20T02:23:21;19.53;63.56
75088;HTU21D;63664;44.868;40.600;2023-08-20T02:25:50;19.51;63.70
75088;HTU21D;63664;44.868;40.600;2023-08-20T02:28:17;19.47;63.85
75088;HTU21D;63664;44.868;40.600;2023-08-20T02:30:45;19.46;64.05
75088;HTU21D;63664;44.868;40.600;2023-08-20T02:33:12;19.46;64.08
75088;HTU21D;63664;44.868;40.600;2023-08-20T02:35:39;19.45;64.23
75088;HTU21D;63664;44.868;40.600;2023-08-20T02:38:06;19.44;64.37
75088;HTU21D;63664;44.868;40.600;2023-08-20T02:40:32;19.42;64.52
75088;HTU21D;63664;44.868;40.600;2023-08-20T02:43:06;19.42;64.58
75088;HTU21D;63664;44.868;40.600;2023-08-20T02:45:32;19.41;64.72
75088;HTU21D;63664;44.868;40.600;2023-08-20T02:48:00;19.40;64.94
75088;HTU21D;63664;44.868;40.600;2023-08-20T02:50:27;19.38;65.02
75088;HTU21D;63664;44.868;40.600;2023-08-20T02:52:54;19.38;65.23
75088;HTU21D;63664;44.868;40.600;2023-08-20T02:55:20;19.36;65.33
75088;HTU21D;63664;44.868;40.600;2023-08-20T02:57:47;19.33;65.57
75088;HTU21D;63664;44.868;40.600;2023-08-20T03:00:13;19.32;65.73
75088;HTU21D;63664;44.868;40.600;2023-08-20T03:02:39;19.32;65.85
75088;HTU21D;63664;44.868;40.600;2023-08-20T03:05:10;19.33;65.98
75088;HTU21D;63664;44.868;40.600;2023-08-20T03:07:36;19.33;66.05
75088;HTU21D;63664;44.868;40.600;2023-08-20T03:10:03;19.33;66.20
75088;HTU21D;63664;44.868;40.600;2023-08-20T03:12:29;19.35;66.33
75088;HTU21D;63664;44.868;40.600;2023-08-20T03:14:56;19.37;66.46
75088;HTU21D;63664;44.868;40.600;2023-08-20T03:17:22;19.38;66.55
75088;HTU21D;63664;44.868;40.600;2023-08-20T03:20:00;19.38;66.65
75088;HTU21D;63664;44.868;40.600;2023-08-20T03:22:27;19.39;66.76
75088;HTU21D;63664;44.868;40.600;2023-08-20T03:24:53;19.41;66.82
75088;HTU21D;63664;44.868;40.600;2023-08-20T03:27:20;19.44;66.84
75088;HTU21D;63664;44.868;40.600;2023-08-20T03:29:46;19.50;66.91
75088;HTU21D;63664;44.868;40.600;2023-08-20T03:32:14;19.53;66.89
75088;HTU21D;63664;44.868;40.600;2023-08-20T03:34:41;19.55;67.01
75088;HTU21D;63664;44.868;40.600;2023-08-20T03:37:07;19.57;66.99
75088;HTU21D;63664;44.868;40.600;2023-08-20T03:39:35;19.60;67.09
75088;HTU21D;63664;44.868;40.600;2023-08-20T03:42:01;19.62;67.11
75088;HTU21D;63664;44.868;40.600;2023-08-20T03:44:28;19.67;67.13
75088;HTU21D;63664;44.868;40.600;2023-08-20T03:46:55;19.71;67.01
75088;HTU21D;63664;44.868;40.600;2023-08-20T03:49:22;19.79;66.94
75088;HTU21D;63664;44.868;40.600;2023-08-20T03:51:48;19.84;66.90
75088;HTU21D;63664;44.868;40.600;2023-08-20T03:54:15;19.91;66.63
75088;HTU21D;63664;44.868;40.600;2023-08-20T03:56:41;19.99;66.56
75088;HTU21D;63664;44.868;40.600;2023-08-20T03:59:07;20.03;66.36
75088;HTU21D;63664;44.868;40.600;2023-08-20T04:01:35;20.11;66.45
75088;HTU21D;63664;44.868;40.600;2023-08-20T04:04:03;20.17;66.64
75088;HTU21D;63664;44.868;40.600;2023-08-20T04:06:30;20.24;66.36
75088;HTU21D;63664;44.868;40.600;2023-08-20T04:08:56;20.31;65.94
75088;HTU21D;63664;44.868;40.600;2023-08-20T04:11:23;20.40;65.43
75088;HTU21D;63664;44.868;40.600;2023-08-20T04:13:49;20.50;64.98
75088;HTU21D;63664;44.868;40.600;2023-08-20T04:16:15;20.62;64.46
75088;HTU21D;63664;44.868;40.600;2023-08-20T04:18:41;20.75;63.94
75088;HTU21D;63664;44.868;40.600;2023-08-20T04:21:08;20.87;63.51
75088;HTU21D;63664;44.868;40.600;2023-08-20T04:23:34;20.98;63.30
75088;HTU21D;63664;44.868;40.600;2023-08-20T04:26:00;21.05;63.21
75088;HTU21D;63664;44.868;40.600;2023-08-20T04:28:27;21.14;62.93
75088;HTU21D;63664;44.868;40.600;2023-08-20T04:30:54;21.24;62.55
75088;HTU21D;63664;44.868;40.600;2023-08-20T04:33:27;21.32;62.21
75088;HTU21D;63664;44.868;40.600;2023-08-20T04:35:53;21.42;62.03
75088;HTU21D;63664;44.868;40.600;2023-08-20T04:38:19;21.52;61.76
75088;HTU21D;63664;44.868;40.600;2023-08-20T04:40:47;21.65;61.47
75088;HTU21D;63664;44.868;40.600;2023-08-20T04:43:15;21.74;61.09
75088;HTU21D;63664;44.868;40.600;2023-08-20T04:45:42;21.82;60.71
75088;HTU21D;63664;44.868;40.600;2023-08-20T04:48:08;21.93;60.42
75088;HTU21D;63664;44.868;40.600;2023-08-20T04:50:35;22.05;60.03
75088;HTU21D;63664;44.868;40.600;2023-08-20T04:53:03;22.17;59.67
75088;HTU21D;63664;44.868;40.600;2023-08-20T04:55:30;22.26;59.52
75088;HTU21D;63664;44.868;40.600;2023-08-20T04:57:57;22.35;59.33
75088;HTU21D;63664;44.868;40.600;2023-08-20T05:00:24;22.47;59.02
75088;HTU21D;63664;44.868;40.600;2023-08-20T05:03:03;22.65;58.69
75088;HTU21D;63664;44.868;40.600;2023-08-20T05:05:30;22.73;58.35
75088;HTU21D;63664;44.868;40.600;2023-08-20T05:07:56;22.92;57.93
75088;HTU21D;63664;44.868;40.600;2023-08-20T05:10:23;23.09;57.50
75088;HTU21D;63664;44.868;40.600;2023-08-20T05:12:49;23.28;57.06
75088;HTU21D;63664;44.868;40.600;2023-08-20T05:15:16;23.45;56.84
75088;HTU21D;63664;44.868;40.600;2023-08-20T05:17:42;23.57;56.72
75088;HTU21D;63664;44.868;40.600;2023-08-20T05:20:09;23.74;56.28
75088;HTU21D;63664;44.868;40.600;2023-08-20T05:22:36;23.94;55.94
75088;HTU21D;63664;44.868;40.600;2023-08-20T05:25:02;24.09;55.71
75088;HTU21D;63664;44.868;40.600;2023-08-20T05:27:29;24.28;55.23
75088;HTU21D;63664;44.868;40.600;2023-08-20T05:29:57;24.50;54.70
75088;HTU21D;63664;44.868;40.600;2023-08-20T05:32:23;24.70;54.20
75088;HTU21D;63664;44.868;40.600;2023-08-20T05:34:50;24.92;53.67
75088;HTU21D;63664;44.868;40.600;2023-08-20T05:37:16;25.15;53.10
75088;HTU21D;63664;44.868;40.600;2023-08-20T05:39:44;25.36;52.74
75088;HTU21D;63664;44.868;40.600;2023-08-20T05:42:11;25.58;52.46
75088;HTU21D;63664;44.868;40.600;2023-08-20T05:44:41;25.79;52.22
75088;HTU21D;63664;44.868;40.600;2023-08-20T05:47:11;25.97;52.04
75088;HTU21D;63664;44.868;40.600;2023-08-20T05:49:38;26.16;51.56
75088;HTU21D;63664;44.868;40.600;2023-08-20T05:52:04;26.36;51.21
75088;HTU21D;63664;44.868;40.600;2023-08-20T05:54:30;26.61;50.79
75088;HTU21D;63664;44.868;40.600;2023-08-20T05:56:58;26.86;49.96
75088;HTU21D;63664;44.868;40.600;2023-08-20T05:59:25;27.12;49.45
75088;HTU21D;63664;44.868;40.600;2023-08-20T06:01:53;27.40;48.66
75088;HTU21D;63664;44.868;40.600;2023-08-20T06:04:20;27.65;48.34
75088;HTU21D;63664;44.868;40.600;2023-08-20T06:06:47;27.88;47.70
75088;HTU21D;63664;44.868;40.600;2023-08-20T06:09:13;28.12;46.99
75088;HTU21D;63664;44.868;40.600;2023-08-20T06:11:39;28.37;46.18
75088;HTU21D;63664;44.868;40.600;2023-08-20T06:14:06;28.60;45.45
75088;HTU21D;63664;44.868;40.600;2023-08-20T06:16:32;28.79;44.83
75088;HTU21D;63664;44.868;40.600;2023-08-20T06:18:58;29.00;44.19
75088;HTU21D;63664;44.868;40.600;2023-08-20T06:21:24;29.24;43.44
75088;HTU21D;63664;44.868;40.600;2023-08-20T06:23:51;29.49;43.06
75088;HTU21D;63664;44.868;40.600;2023-08-20T06:26:17;29.70;42.64
75088;HTU21D;63664;44.868;40.600;2023-08-20T06:28:44;29.94;42.00
75088;HTU21D;63664;44.868;40.600;2023-08-20T06:31:10;30.22;41.55
75088;HTU21D;63664;44.868;40.600;2023-08-20T06:33:36;30.47;40.88
75088;HTU21D;63664;44.868;40.600;2023-08-20T06:36:03;30.67;40.43
75088;HTU21D;63664;44.868;40.600;2023-08-20T06:38:29;30.87;39.92
75088;HTU21D;63664;44.868;40.600;2023-08-20T06:40:56;31.09;39.32
75088;HTU21D;63664;44.868;40.600;2023-08-20T06:43:22;31.28;38.87
75088;HTU21D;63664;44.868;40.600;2023-08-20T06:45:49;31.51;38.38
75088;HTU21D;63664;44.868;40.600;2023-08-20T06:48:15;31.71;38.09
75088;HTU21D;63664;44.868;40.600;2023-08-20T06:50:42;31.92;37.53
75088;HTU21D;63664;44.868;40.600;2023-08-20T06:53:08;32.14;37.08
75088;HTU21D;63664;44.868;40.600;2023-08-20T06:55:35;32.30;36.63
75088;HTU21D;63664;44.868;40.600;2023-08-20T06:58:02;32.45;36.27
75088;HTU21D;63664;44.868;40.600;2023-08-20T07:00:28;32.64;35.68
75088;HTU21D;63664;44.868;40.600;2023-08-20T07:02:54;32.84;35.24
75088;HTU21D;63664;44.868;40.600;2023-08-20T07:05:21;33.00;34.90
75088;HTU21D;63664;44.868;40.600;2023-08-20T07:07:47;33.13;34.30
75088;HTU21D;63664;44.868;40.600;2023-08-20T07:10:13;33.22;33.99
75088;HTU21D;63664;44.868;40.600;2023-08-20T07:12:39;33.33;33.51
75088;HTU21D;63664;44.868;40.600;2023-08-20T07:15:06;33.43;33.02
75088;HTU21D;63664;44.868;40.600;2023-08-20T07:17:33;33.53;32.52
75088;HTU21D;63664;44.868;40.600;2023-08-20T07:19:59;33.63;31.84
75088;HTU21D;63664;44.868;40.600;2023-08-20T07:22:25;33.67;31.95
75088;HTU21D;63664;44.868;40.600;2023-08-20T07:24:52;33.85;31.67
75088;HTU21D;63664;44.868;40.600;2023-08-20T07:27:18;34.02;31.41
75088;HTU21D;63664;44.868;40.600;2023-08-20T07:29:44;34.15;30.95
75088;HTU21D;63664;44.868;40.600;2023-08-20T07:32:11;34.26;30.57
75088;HTU21D;63664;44.868;40.600;2023-08-20T07:34:37;34.39;30.24
75088;HTU21D;63664;44.868;40.600;2023-08-20T07:37:04;34.49;29.78
75088;HTU21D;63664;44.868;40.600;2023-08-20T07:39:31;34.52;29.36
75088;HTU21D;63664;44.868;40.600;2023-08-20T07:41:58;34.53;28.92
75088;HTU21D;63664;44.868;40.600;2023-08-20T07:44:24;34.65;28.87
75088;HTU21D;63664;44.868;40.600;2023-08-20T07:46:51;34.78;28.59
75088;HTU21D;63664;44.868;40.600;2023-08-20T07:49:17;34.90;28.09
75088;HTU21D;63664;44.868;40.600;2023-08-20T07:51:43;34.97;27.70
75088;HTU21D;63664;44.868;40.600;2023-08-20T07:54:10;35.04;27.56
75088;HTU21D;63664;44.868;40.600;2023-08-20T07:56:36;35.13;27.39
75088;HTU21D;63664;44.868;40.600;2023-08-20T07:59:02;35.28;27.29
75088;HTU21D;63664;44.868;40.600;2023-08-20T08:01:29;35.45;27.07
75088;HTU21D;63664;44.868;40.600;2023-08-20T08:03:56;35.63;26.66
75088;HTU21D;63664;44.868;40.600;2023-08-20T08:06:22;35.73;26.46
75088;HTU21D;63664;44.868;40.600;2023-08-20T08:08:49;35.86;26.20
75088;HTU21D;63664;44.868;40.600;2023-08-20T08:11:16;35.98;25.88
75088;HTU21D;63664;44.868;40.600;2023-08-20T08:13:42;36.03;25.62
75088;HTU21D;63664;44.868;40.600;2023-08-20T08:16:08;36.02;25.39
75088;HTU21D;63664;44.868;40.600;2023-08-20T08:18:34;36.12;25.18
75088;HTU21D;63664;44.868;40.600;2023-08-20T08:21:01;36.28;24.97
75088;HTU21D;63664;44.868;40.600;2023-08-20T08:23:27;36.37;24.82
75088;HTU21D;63664;44.868;40.600;2023-08-20T08:25:54;36.37;24.49
75088;HTU21D;63664;44.868;40.600;2023-08-20T08:28:20;36.41;24.04
75088;HTU21D;63664;44.868;40.600;2023-08-20T08:30:47;36.52;23.69
75088;HTU21D;63664;44.868;40.600;2023-08-20T08:33:13;36.66;23.58
75088;HTU21D;63664;44.868;40.600;2023-08-20T08:35:39;36.78;23.14
75088;HTU21D;63664;44.868;40.600;2023-08-20T08:38:05;36.87;22.94
75088;HTU21D;63664;44.868;40.600;2023-08-20T08:40:33;36.97;22.63
75088;HTU21D;63664;44.868;40.600;2023-08-20T08:43:00;36.99;22.59
75088;HTU21D;63664;44.868;40.600;2023-08-20T08:45:28;37.11;22.45
75088;HTU21D;63664;44.868;40.600;2023-08-20T08:47:56;37.17;22.26
75088;HTU21D;63664;44.868;40.600;2023-08-20T08:50:22;37.22;22.14
75088;HTU21D;63664;44.868;40.600;2023-08-20T08:52:51;37.18;21.88
75088;HTU21D;63664;44.868;40.600;2023-08-20T08:55:18;37.15;22.02
75088;HTU21D;63664;44.868;40.600;2023-08-20T08:57:45;37.21;21.89
75088;HTU21D;63664;44.868;40.600;2023-08-20T09:00:12;37.26;21.83
75088;HTU21D;63664;44.868;40.600;2023-08-20T09:02:38;37.23;21.67
75088;HTU21D;63664;44.868;40.600;2023-08-20T09:05:05;37.31;21.66
75088;HTU21D;63664;44.868;40.600;2023-08-20T09:07:32;37.27;21.53
75088;HTU21D;63664;44.868;40.600;2023-08-20T09:09:59;37.30;21.41
75088;HTU21D;63664;44.868;40.600;2023-08-20T09:12:26;37.32;21.34
75088;HTU21D;63664;44.868;40.600;2023-08-20T09:14:55;37.34;21.47
75088;HTU21D;63664;44.868;40.600;2023-08-20T09:17:25;37.56;21.32
75088;HTU21D;63664;44.868;40.600;2023-08-20T09:19:55;37.80;20.97
75088;HTU21D;63664;44.868;40.600;2023-08-20T09:22:24;37.95;20.54
75088;HTU21D;63664;44.868;40.600;2023-08-20T09:24:57;37.93;20.23
75088;HTU21D;63664;44.868;40.600;2023-08-20T09:27:24;37.94;20.15
75088;HTU21D;63664;44.868;40.600;2023-08-20T09:29:57;38.05;20.09
75088;HTU21D;63664;44.868;40.600;2023-08-20T09:32:26;38.24;19.78
75088;HTU21D;63664;44.868;40.600;2023-08-20T09:34:54;38.26;19.54
75088;HTU21D;63664;44.868;40.600;2023-08-20T09:37:23;38.32;19.52
75088;HTU21D;63664;44.868;40.600;2023-08-20T09:39:49;38.48;19.46
75088;HTU21D;63664;44.868;40.600;2023-08-20T09:42:17;38.69;19.25
75088;HTU21D;63664;44.868;40.600;2023-08-20T09:44:45;38.70;18.92
75088;HTU21D;63664;44.868;40.600;2023-08-20T09:47:14;38.62;18.88
75088;HTU21D;63664;44.868;40.600;2023-08-20T09:49:45;38.62;18.67
75088;HTU21D;63664;44.868;40.600;2023-08-20T09:52:52;38.60;18.63
75088;HTU21D;63664;44.868;40.600;2023-08-20T09:55:11;38.66;18.51
75088;HTU21D;63664;44.868;40.600;2023-08-20T09:57:40;38.70;18.47
75088;HTU21D;63664;44.868;40.600;2023-08-20T10:00:09;38.73;18.41
75088;HTU21D;63664;44.868;40.600;2023-08-20T10:02:43;38.78;18.42
75088;HTU21D;63664;44.868;40.600;2023-08-20T10:05:11;38.76;18.19
75088;HTU21D;63664;44.868;40.600;2023-08-20T10:07:39;38.91;17.77
75088;HTU21D;63664;44.868;40.600;2023-08-20T10:10:07;38.89;17.54
75088;HTU21D;63664;44.868;40.600;2023-08-20T10:12:36;38.90;17.41
75088;HTU21D;63664;44.868;40.600;2023-08-20T10:15:07;38.78;17.42
75088;HTU21D;63664;44.868;40.600;2023-08-20T10:17:34;38.78;17.47
75088;HTU21D;63664;44.868;40.600;2023-08-20T10:20:04;38.95;17.40
75088;HTU21D;63664;44.868;40.600;2023-08-20T10:22:38;39.09;17.26
75088;HTU21D;63664;44.868;40.600;2023-08-20T10:25:09;39.15;17.34
75088;HTU21D;63664;44.868;40.600;2023-08-20T10:27:39;39.20;17.21
75088;HTU21D;63664;44.868;40.600;2023-08-20T10:30:18;39.19;17.09
75088;HTU21D;63664;44.868;40.600;2023-08-20T10:32:48;39.32;17.14
75088;HTU21D;63664;44.868;40.600;2023-08-20T10:38:11;39.35;17.09
75088;HTU21D;63664;44.868;40.600;2023-08-20T10:40:57;39.48;17.71
75088;HTU21D;63664;44.868;40.600;2023-08-20T10:46:18;39.18;17.14
75088;HTU21D;63664;44.868;40.600;2023-08-20T10:48:56;39.13;17.00
75088;HTU21D;63664;44.868;40.600;2023-08-20T10:54:03;39.06;16.68
75088;HTU21D;63664;44.868;40.600;2023-08-20T10:56:48;38.94;16.49
75088;HTU21D;63664;44.868;40.600;2023-08-20T10:59:25;38.93;16.64
75088;HTU21D;63664;44.868;40.600;2023-08-20T11:01:58;38.99;16.42
75088;HTU21D;63664;44.868;40.600;2023-08-20T11:04:29;39.04;16.45
75088;HTU21D;63664;44.868;40.600;2023-08-20T11:06:59;39.03;16.42
75088;HTU21D;63664;44.868;40.600;2023-08-20T11:09:28;39.00;16.29
75088;HTU21D;63664;44.868;40.600;2023-08-20T11:11:56;39.07;16.40
75088;HTU21D;63664;44.868;40.600;2023-08-20T11:14:23;39.08;16.27
75088;HTU21D;63664;44.868;40.600;2023-08-20T11:16:50;39.11;16.22
75088;HTU21D;63664;44.868;40.600;2023-08-20T11:19:21;39.08;16.04
75088;HTU21D;63664;44.868;40.600;2023-08-20T11:21:48;39.04;16.00
75088;HTU21D;63664;44.868;40.600;2023-08-20T11:24:16;39.00;15.82
75088;HTU21D;63664;44.868;40.600;2023-08-20T11:26:44;38.86;15.97
75088;HTU21D;63664;44.868;40.600;2023-08-20T11:29:12;38.82;15.88
75088;HTU21D;63664;44.868;40.600;2023-08-20T11:31:40;38.79;16.06
75088;HTU21D;63664;44.868;40.600;2023-08-20T11:34:07;38.79;15.99
75088;HTU21D;63664;44.868;40.600;2023-08-20T11:36:38;38.79;15.87
75088;HTU21D;63664;44.868;40.600;2023-08-20T11:39:07;38.73;15.82
75088;HTU21D;63664;44.868;40.600;2023-08-20T11:41:38;38.63;15.78
75088;HTU21D;63664;44.868;40.600;2023-08-20T11:44:08;38.56;15.75
75088;HTU21D;63664;44.868;40.600;2023-08-20T11:46:42;38.61;15.92
75088;HTU21D;63664;44.868;40.600;2023-08-20T11:49:11;38.49;16.18
75088;HTU21D;63664;44.868;40.600;2023-08-20T11:51:41;38.48;16.28
75088;HTU21D;63664;44.868;40.600;2023-08-20T11:54:13;38.49;16.29
75088;HTU21D;63664;44.868;40.600;2023-08-20T11:56:44;38.53;16.32
75088;HTU21D;63664;44.868;40.600;2023-08-20T11:59:12;38.59;16.24
75088;HTU21D;63664;44.868;40.600;2023-08-20T12:01:39;38.61;16.15
75088;HTU21D;63664;44.868;40.600;2023-08-20T12:04:07;38.55;16.23
75088;HTU21D;63664;44.868;40.600;2023-08-20T12:06:34;38.58;16.67
75088;HTU21D;63664;44.868;40.600;2023-08-20T12:09:07;38.44;16.54
75088;HTU21D;63664;44.868;40.600;2023-08-20T12:11:54;38.30;16.47
75088;HTU21D;63664;44.868;40.600;2023-08-20T12:14:24;38.21;16.45
75088;HTU21D;63664;44.868;40.600;2023-08-20T12:16:51;38.24;16.45
75088;HTU21D;63664;44.868;40.600;2023-08-20T12:19:17;38.25;16.42
75088;HTU21D;63664;44.868;40.600;2023-08-20T12:21:44;38.21;16.35
75088;HTU21D;63664;44.868;40.600;2023-08-20T12:24:10;38.11;16.36
75088;HTU21D;63664;44.868;40.600;2023-08-20T12:26:38;38.07;16.33
75088;HTU21D;63664;44.868;40.600;2023-08-20T12:29:05;38.05;16.22
75088;HTU21D;63664;44.868;40.600;2023-08-20T12:31:32;38.00;16.35
75088;HTU21D;63664;44.868;40.600;2023-08-20T12:33:59;37.94;16.26
75088;HTU21D;63664;44.868;40.600;2023-08-20T12:36:26;37.88;16.27
75088;HTU21D;63664;44.868;40.600;2023-08-20T12:38:52;37.77;16.28
75088;HTU21D;63664;44.868;40.600;2023-08-20T12:41:19;37.77;16.37
75088;HTU21D;63664;44.868;40.600;2023-08-20T12:43:46;37.78;16.42
75088;HTU21D;63664;44.868;40.600;2023-08-20T12:46:12;37.78;16.42
75088;HTU21D;63664;44.868;40.600;2023-08-20T12:48:40;37.78;16.40
75088;HTU21D;63664;44.868;40.600;2023-08-20T12:51:06;37.70;16.38
75088;HTU21D;63664;44.868;40.600;2023-08-20T12:53:33;37.61;16.60
75088;HTU21D;63664;44.868;40.600;2023-08-20T12:55:59;37.49;16.61
75088;HTU21D;63664;44.868;40.600;2023-08-20T12:58:26;37.40;16.73
75088;HTU21D;63664;44.868;40.600;2023-08-20T13:00:52;37.36;16.80
75088;HTU21D;63664;44.868;40.600;2023-08-20T13:03:19;37.31;16.86
75088;HTU21D;63664;44.868;40.600;2023-08-20T13:05:45;37.28;17.06
75088;HTU21D;63664;44.868;40.600;2023-08-20T13:08:12;37.23;16.96
75088;HTU21D;63664;44.868;40.600;2023-08-20T13:10:40;37.18;17.02
75088;HTU21D;63664;44.868;40.600;2023-08-20T13:13:09;37.17;17.29
75088;HTU21D;63664;44.868;40.600;2023-08-20T13:15:36;37.05;17.44
75088;HTU21D;63664;44.868;40.600;2023-08-20T13:18:03;37.01;17.40
75088;HTU21D;63664;44.868;40.600;2023-08-20T13:20:30;36.99;17.41
75088;HTU21D;63664;44.868;40.600;2023-08-20T13:22:56;36.91;17.39
75088;HTU21D;63664;44.868;40.600;2023-08-20T13:25:23;36.88;17.41
75088;HTU21D;63664;44.868;40.600;2023-08-20T13:27:49;36.81;17.41
75088;HTU21D;63664;44.868;40.600;2023-08-20T13:30:16;36.75;17.53
75088;HTU21D;63664;44.868;40.600;2023-08-20T13:32:42;36.72;17.59
75088;HTU21D;63664;44.868;40.600;2023-08-20T13:35:08;36.71;17.50
75088;HTU21D;63664;44.868;40.600;2023-08-20T13:37:35;36.67;17.49
75088;HTU21D;63664;44.868;40.600;2023-08-20T13:40:02;36.61;17.54
75088;HTU21D;63664;44.868;40.600;2023-08-20T13:42:30;36.55;17.57
75088;HTU21D;63664;44.868;40.600;2023-08-20T13:44:57;36.48;17.51
75088;HTU21D;63664;44.868;40.600;2023-08-20T13:47:24;36.45;17.60
75088;HTU21D;63664;44.868;40.600;2023-08-20T13:49:50;36.45;17.64
75088;HTU21D;63664;44.868;40.600;2023-08-20T13:52:16;36.43;17.66
75088;HTU21D;63664;44.868;40.600;2023-08-20T13:54:43;36.34;17.78
75088;HTU21D;63664;44.868;40.600;2023-08-20T13:57:09;36.30;17.79
75088;HTU21D;63664;44.868;40.600;2023-08-20T13:59:36;36.24;17.87
75088;HTU21D;63664;44.868;40.600;2023-08-20T14:02:02;36.21;17.93
75088;HTU21D;63664;44.868;40.600;2023-08-20T14:04:29;36.21;18.12
75088;HTU21D;63664;44.868;40.600;2023-08-20T14:06:55;36.17;18.10
75088;HTU21D;63664;44.868;40.600;2023-08-20T14:09:21;36.14;18.19
75088;HTU21D;63664;44.868;40.600;2023-08-20T14:11:48;36.08;18.17
75088;HTU21D;63664;44.868;40.600;2023-08-20T14:14:14;36.03;18.22
75088;HTU21D;63664;44.868;40.600;2023-08-20T14:16:41;35.99;18.23
75088;HTU21D;63664;44.868;40.600;2023-08-20T14:19:07;35.95;18.28
75088;HTU21D;63664;44.868;40.600;2023-08-20T14:21:33;35.88;18.22
75088;HTU21D;63664;44.868;40.600;2023-08-20T14:24:00;35.81;18.31
75088;HTU21D;63664;44.868;40.600;2023-08-20T14:26:26;35.73;18.32
75088;HTU21D;63664;44.868;40.600;2023-08-20T14:28:52;35.69;18.35
75088;HTU21D;63664;44.868;40.600;2023-08-20T14:31:19;35.62;18.46
75088;HTU21D;63664;44.868;40.600;2023-08-20T14:33:45;35.53;18.33
75088;HTU21D;63664;44.868;40.600;2023-08-20T14:36:11;35.44;18.44
75088;HTU21D;63664;44.868;40.600;2023-08-20T14:38:38;35.39;18.48
75088;HTU21D;63664;44.868;40.600;2023-08-20T14:41:04;35.31;18.54
75088;HTU21D;63664;44.868;40.600;2023-08-20T14:43:30;35.25;18.62
75088;HTU21D;63664;44.868;40.600;2023-08-20T14:45:57;35.18;18.66
75088;HTU21D;63664;44.868;40.600;2023-08-20T14:48:24;35.11;18.74
75088;HTU21D;63664;44.868;40.600;2023-08-20T14:50:51;35.01;18.90
75088;HTU21D;63664;44.868;40.600;2023-08-20T14:53:18;34.95;18.89
75088;HTU21D;63664;44.868;40.600;2023-08-20T14:55:45;34.88;18.97
75088;HTU21D;63664;44.868;40.600;2023-08-20T14:58:12;34.81;19.03
75088;HTU21D;63664;44.868;40.600;2023-08-20T15:00:38;34.75;19.07
75088;HTU21D;63664;44.868;40.600;2023-08-20T15:03:05;34.68;19.15
75088;HTU21D;63664;44.868;40.600;2023-08-20T15:05:32;34.61;19.22
75088;HTU21D;63664;44.868;40.600;2023-08-20T15:07:59;34.54;19.37
75088;HTU21D;63664;44.868;40.600;2023-08-20T15:10:26;34.47;19.35
75088;HTU21D;63664;44.868;40.600;2023-08-20T15:12:52;34.38;19.44
75088;HTU21D;63664;44.868;40.600;2023-08-20T15:15:19;34.32;19.51
75088;HTU21D;63664;44.868;40.600;2023-08-20T15:17:46;34.24;19.61
75088;HTU21D;63664;44.868;40.600;2023-08-20T15:20:13;34.19;19.70